sensor_id;sensor_type;location;lat;lon;timestamp;P1;durP1;ratioP1;P2;durP2;ratioP2
9698;SDS011;10089;47.876;8.346;2023-12-28T00:00:06;1.00;;;0.80;;
9698;SDS011;10089;47.876;8.346;2023-12-28T00:02:32;1.45;;;1.00;;
9698;SDS011;10089;47.876;8.346;2023-12-28T00:04:58;3.85;;;1.20;;
9698;SDS011;10089;47.876;8.346;2023-12-28T00:07:23;1.45;;;1.10;;
9698;SDS011;10089;47.876;8.346;2023-12-28T00:09:49;0.88;;;0.88;;
9698;SDS011;10089;47.876;8.346;2023-12-28T00:12:15;1.63;;;1.10;;
9698;SDS011;10089;47.876;8.346;2023-12-28T00:14:40;1.23;;;0.93;;
9698;SDS011;10089;47.876;8.346;2023-12-28T00:17:06;1.70;;;0.93;;
9698;SDS011;10089;47.876;8.346;2023-12-28T00:19:31;1.73;;;1.25;;
9698;SDS011;10089;47.876;8.346;2023-12-28T00:21:57;0.98;;;0.90;;
9698;SDS011;10089;47.876;8.346;2023-12-28T00:24:22;1.63;;;1.15;;
9698;SDS011;10089;47.876;8.346;2023-12-28T00:26:48;1.77;;;1.20;;
9698;SDS011;10089;47.876;8.346;2023-12-28T00:29:13;1.35;;;1.02;;
9698;SDS011;10089;47.876;8.346;2023-12-28T00:31:39;1.33;;;1.10;;
9698;SDS011;10089;47.876;8.346;2023-12-28T00:34:05;1.25;;;1.10;;
9698;SDS011;10089;47.876;8.346;2023-12-28T00:36:30;2.00;;;1.10;;
9698;SDS011;10089;47.876;8.346;2023-12-28T00:38:56;1.40;;;0.95;;
9698;SDS011;10089;47.876;8.346;2023-12-28T00:41:22;0.77;;;0.77;;
9698;SDS011;10089;47.876;8.346;2023-12-28T00:43:47;1.80;;;0.98;;
9698;SDS011;10089;47.876;8.346;2023-12-28T00:46:13;2.17;;;1.10;;
9698;SDS011;10089;47.876;8.346;2023-12-28T00:48:39;1.55;;;1.08;;
9698;SDS011;10089;47.876;8.346;2023-12-28T00:51:04;1.80;;;0.93;;
9698;SDS011;10089;47.876;8.346;2023-12-28T00:53:30;1.65;;;1.10;;
9698;SDS011;10089;47.876;8.346;2023-12-28T00:55:56;1.30;;;1.20;;
9698;SDS011;10089;47.876;8.346;2023-12-28T00:58:21;1.20;;;1.00;;
9698;SDS011;10089;47.876;8.346;2023-12-28T01:00:47;1.10;;;1.00;;
9698;SDS011;10089;47.876;8.346;2023-12-28T01:03:12;1.27;;;1.00;;
9698;SDS011;10089;47.876;8.346;2023-12-28T01:05:38;3.17;;;1.48;;
9698;SDS011;10089;47.876;8.346;2023-12-28T01:08:04;1.20;;;1.10;;
9698;SDS011;10089;47.876;8.346;2023-12-28T01:10:29;1.52;;;1.10;;
9698;SDS011;10089;47.876;8.346;2023-12-28T01:12:55;1.65;;;1.30;;
9698;SDS011;10089;47.876;8.346;2023-12-28T01:15:21;0.90;;;0.90;;
9698;SDS011;10089;47.876;8.346;2023-12-28T01:17:46;2.17;;;1.27;;
9698;SDS011;10089;47.876;8.346;2023-12-28T01:20:12;1.15;;;1.05;;
9698;SDS011;10089;47.876;8.346;2023-12-28T01:22:38;1.30;;;1.05;;
9698;SDS011;10089;47.876;8.346;2023-12-28T01:25:03;1.23;;;1.10;;
9698;SDS011;10089;47.876;8.346;2023-12-28T01:27:29;1.52;;;1.10;;
9698;SDS011;10089;47.876;8.346;2023-12-28T01:29:55;1.00;;;0.90;;
9698;SDS011;10089;47.876;8.346;2023-12-28T01:32:21;1.20;;;0.98;;
9698;SDS011;10089;47.876;8.346;2023-12-28T01:34:47;2.17;;;1.15;;
9698;SDS011;10089;47.876;8.346;2023-12-28T01:37:13;1.65;;;1.20;;
9698;SDS011;10089;47.876;8.346;2023-12-28T01:39:38;1.33;;;0.95;;
9698;SDS011;10089;47.876;8.346;2023-12-28T01:42:04;1.15;;;1.00;;
9698;SDS011;10089;47.876;8.346;2023-12-28T01:44:30;1.80;;;1.23;;
9698;SDS011;10089;47.876;8.346;2023-12-28T01:46:55;1.50;;;1.17;;
9698;SDS011;10089;47.876;8.346;2023-12-28T01:49:22;2.05;;;1.20;;
9698;SDS011;10089;47.876;8.346;2023-12-28T01:51:48;2.15;;;1.27;;
9698;SDS011;10089;47.876;8.346;2023-12-28T01:54:14;1.90;;;1.27;;
9698;SDS011;10089;47.876;8.346;2023-12-28T01:56:40;1.77;;;1.20;;
9698;SDS011;10089;47.876;8.346;2023-12-28T01:59:07;1.10;;;1.00;;
9698;SDS011;10089;47.876;8.346;2023-12-28T02:01:32;0.80;;;0.80;;
9698;SDS011;10089;47.876;8.346;2023-12-28T02:03:58;1.00;;;0.90;;
9698;SDS011;10089;47.876;8.346;2023-12-28T02:06:24;1.30;;;1.10;;
9698;SDS011;10089;47.876;8.346;2023-12-28T02:08:49;1.13;;;1.02;;
9698;SDS011;10089;47.876;8.346;2023-12-28T02:11:15;1.15;;;1.05;;
9698;SDS011;10089;47.876;8.346;2023-12-28T02:13:41;1.00;;;0.90;;
9698;SDS011;10089;47.876;8.346;2023-12-28T02:16:13;1.23;;;1.00;;
9698;SDS011;10089;47.876;8.346;2023-12-28T02:18:49;1.20;;;1.10;;
9698;SDS011;10089;47.876;8.346;2023-12-28T02:21:16;2.05;;;1.15;;
9698;SDS011;10089;47.876;8.346;2023-12-28T02:23:47;1.75;;;1.00;;
9698;SDS011;10089;47.876;8.346;2023-12-28T02:26:14;1.50;;;1.20;;
9698;SDS011;10089;47.876;8.346;2023-12-28T02:28:40;1.50;;;1.17;;
9698;SDS011;10089;47.876;8.346;2023-12-28T02:31:06;2.28;;;1.10;;
9698;SDS011;10089;47.876;8.346;2023-12-28T02:34:19;1.50;;;1.20;;
9698;SDS011;10089;47.876;8.346;2023-12-28T02:36:25;1.20;;;1.00;;
9698;SDS011;10089;47.876;8.346;2023-12-28T02:38:52;2.88;;;1.40;;
9698;SDS011;10089;47.876;8.346;2023-12-28T02:41:20;1.42;;;1.33;;
9698;SDS011;10089;47.876;8.346;2023-12-28T02:43:47;1.42;;;1.13;;
9698;SDS011;10089;47.876;8.346;2023-12-28T02:46:13;2.47;;;1.10;;
9698;SDS011;10089;47.876;8.346;2023-12-28T02:48:39;1.70;;;1.20;;
9698;SDS011;10089;47.876;8.346;2023-12-28T02:51:04;1.48;;;1.30;;
9698;SDS011;10089;47.876;8.346;2023-12-28T02:53:30;0.93;;;0.85;;
9698;SDS011;10089;47.876;8.346;2023-12-28T02:55:56;1.88;;;1.00;;
9698;SDS011;10089;47.876;8.346;2023-12-28T02:58:21;1.60;;;1.10;;
9698;SDS011;10089;47.876;8.346;2023-12-28T03:00:47;2.97;;;1.10;;
9698;SDS011;10089;47.876;8.346;2023-12-28T03:03:13;1.88;;;1.08;;
9698;SDS011;10089;47.876;8.346;2023-12-28T03:05:39;3.38;;;1.40;;
9698;SDS011;10089;47.876;8.346;2023-12-28T03:08:06;2.60;;;1.00;;
9698;SDS011;10089;47.876;8.346;2023-12-28T03:10:32;3.08;;;1.38;;
9698;SDS011;10089;47.876;8.346;2023-12-28T03:12:57;1.25;;;1.15;;
9698;SDS011;10089;47.876;8.346;2023-12-28T03:15:23;1.00;;;0.82;;
9698;SDS011;10089;47.876;8.346;2023-12-28T03:17:49;1.00;;;0.88;;
9698;SDS011;10089;47.876;8.346;2023-12-28T03:20:14;1.08;;;0.95;;
9698;SDS011;10089;47.876;8.346;2023-12-28T03:22:40;1.83;;;1.02;;
9698;SDS011;10089;47.876;8.346;2023-12-28T03:25:06;1.63;;;1.10;;
9698;SDS011;10089;47.876;8.346;2023-12-28T03:27:32;2.05;;;1.40;;
9698;SDS011;10089;47.876;8.346;2023-12-28T03:29:57;1.40;;;1.17;;
9698;SDS011;10089;47.876;8.346;2023-12-28T03:32:23;1.15;;;1.00;;
9698;SDS011;10089;47.876;8.346;2023-12-28T03:34:48;1.25;;;1.00;;
9698;SDS011;10089;47.876;8.346;2023-12-28T03:37:14;1.08;;;0.90;;
9698;SDS011;10089;47.876;8.346;2023-12-28T03:39:40;4.25;;;1.08;;
9698;SDS011;10089;47.876;8.346;2023-12-28T03:42:05;1.10;;;1.00;;
9698;SDS011;10089;47.876;8.346;2023-12-28T03:44:33;2.05;;;1.10;;
9698;SDS011;10089;47.876;8.346;2023-12-28T03:46:59;1.52;;;1.08;;
9698;SDS011;10089;47.876;8.346;2023-12-28T03:49:25;1.95;;;1.05;;
9698;SDS011;10089;47.876;8.346;2023-12-28T03:51:51;1.20;;;0.95;;
9698;SDS011;10089;47.876;8.346;2023-12-28T03:54:17;1.75;;;1.25;;
9698;SDS011;10089;47.876;8.346;2023-12-28T03:56:44;1.65;;;1.20;;
9698;SDS011;10089;47.876;8.346;2023-12-28T03:59:10;4.18;;;1.35;;
9698;SDS011;10089;47.876;8.346;2023-12-28T04:01:36;1.25;;;1.13;;
9698;SDS011;10089;47.876;8.346;2023-12-28T04:04:01;1.13;;;1.02;;
9698;SDS011;10089;47.876;8.346;2023-12-28T04:06:27;1.85;;;1.17;;
9698;SDS011;10089;47.876;8.346;2023-12-28T04:08:53;1.98;;;1.20;;
9698;SDS011;10089;47.876;8.346;2023-12-28T04:11:19;1.58;;;1.20;;
9698;SDS011;10089;47.876;8.346;2023-12-28T04:13:44;1.58;;;1.10;;
9698;SDS011;10089;47.876;8.346;2023-12-28T04:16:13;1.15;;;1.05;;
9698;SDS011;10089;47.876;8.346;2023-12-28T04:18:40;4.45;;;1.30;;
9698;SDS011;10089;47.876;8.346;2023-12-28T04:21:10;1.15;;;1.05;;
9698;SDS011;10089;47.876;8.346;2023-12-28T04:23:37;1.45;;;1.00;;
9698;SDS011;10089;47.876;8.346;2023-12-28T04:26:03;1.38;;;0.90;;
9698;SDS011;10089;47.876;8.346;2023-12-28T04:28:29;1.85;;;1.33;;
9698;SDS011;10089;47.876;8.346;2023-12-28T04:30:54;1.05;;;0.82;;
9698;SDS011;10089;47.876;8.346;2023-12-28T04:33:20;1.63;;;1.00;;
9698;SDS011;10089;47.876;8.346;2023-12-28T04:35:46;1.90;;;0.90;;
9698;SDS011;10089;47.876;8.346;2023-12-28T04:38:12;1.08;;;0.93;;
9698;SDS011;10089;47.876;8.346;2023-12-28T04:40:38;1.55;;;1.25;;
9698;SDS011;10089;47.876;8.346;2023-12-28T04:43:03;1.33;;;0.85;;
9698;SDS011;10089;47.876;8.346;2023-12-28T04:45:29;1.98;;;1.30;;
9698;SDS011;10089;47.876;8.346;2023-12-28T04:47:54;3.00;;;1.30;;
9698;SDS011;10089;47.876;8.346;2023-12-28T04:50:20;1.02;;;0.90;;
9698;SDS011;10089;47.876;8.346;2023-12-28T04:52:47;1.38;;;1.08;;
9698;SDS011;10089;47.876;8.346;2023-12-28T04:55:13;1.67;;;1.08;;
9698;SDS011;10089;47.876;8.346;2023-12-28T04:57:40;1.00;;;0.90;;
9698;SDS011;10089;47.876;8.346;2023-12-28T05:00:06;2.72;;;1.23;;
9698;SDS011;10089;47.876;8.346;2023-12-28T05:02:33;1.42;;;1.10;;
9698;SDS011;10089;47.876;8.346;2023-12-28T05:04:59;1.60;;;1.13;;
9698;SDS011;10089;47.876;8.346;2023-12-28T05:07:25;1.30;;;1.20;;
9698;SDS011;10089;47.876;8.346;2023-12-28T05:09:50;1.58;;;1.17;;
9698;SDS011;10089;47.876;8.346;2023-12-28T05:12:16;1.02;;;0.93;;
9698;SDS011;10089;47.876;8.346;2023-12-28T05:14:42;1.10;;;1.00;;
9698;SDS011;10089;47.876;8.346;2023-12-28T05:17:07;2.20;;;1.23;;
9698;SDS011;10089;47.876;8.346;2023-12-28T05:19:33;1.60;;;1.10;;
9698;SDS011;10089;47.876;8.346;2023-12-28T05:21:59;1.48;;;1.20;;
9698;SDS011;10089;47.876;8.346;2023-12-28T05:24:28;2.88;;;1.27;;
9698;SDS011;10089;47.876;8.346;2023-12-28T05:26:54;1.95;;;1.23;;
9698;SDS011;10089;47.876;8.346;2023-12-28T05:29:20;2.45;;;1.42;;
9698;SDS011;10089;47.876;8.346;2023-12-28T05:31:46;2.05;;;1.10;;
9698;SDS011;10089;47.876;8.346;2023-12-28T05:34:11;3.20;;;2.17;;
9698;SDS011;10089;47.876;8.346;2023-12-28T05:36:37;5.07;;;2.00;;
9698;SDS011;10089;47.876;8.346;2023-12-28T05:39:02;4.85;;;2.90;;
9698;SDS011;10089;47.876;8.346;2023-12-28T05:41:29;5.22;;;3.22;;
9698;SDS011;10089;47.876;8.346;2023-12-28T05:43:54;7.57;;;3.60;;
9698;SDS011;10089;47.876;8.346;2023-12-28T05:46:20;4.68;;;3.40;;
9698;SDS011;10089;47.876;8.346;2023-12-28T05:48:46;4.07;;;3.05;;
9698;SDS011;10089;47.876;8.346;2023-12-28T05:51:11;5.13;;;3.28;;
9698;SDS011;10089;47.876;8.346;2023-12-28T05:53:37;4.22;;;3.20;;
9698;SDS011;10089;47.876;8.346;2023-12-28T05:56:03;3.92;;;3.13;;
9698;SDS011;10089;47.876;8.346;2023-12-28T05:58:29;4.05;;;2.85;;
9698;SDS011;10089;47.876;8.346;2023-12-28T06:00:54;5.15;;;3.13;;
9698;SDS011;10089;47.876;8.346;2023-12-28T06:03:20;4.70;;;3.20;;
9698;SDS011;10089;47.876;8.346;2023-12-28T06:05:46;4.43;;;3.28;;
9698;SDS011;10089;47.876;8.346;2023-12-28T06:08:11;3.92;;;2.70;;
9698;SDS011;10089;47.876;8.346;2023-12-28T06:10:38;5.70;;;3.47;;
9698;SDS011;10089;47.876;8.346;2023-12-28T06:13:03;3.60;;;3.00;;
9698;SDS011;10089;47.876;8.346;2023-12-28T06:15:29;5.80;;;3.03;;
9698;SDS011;10089;47.876;8.346;2023-12-28T06:17:55;3.80;;;2.88;;
9698;SDS011;10089;47.876;8.346;2023-12-28T06:20:20;6.63;;;2.95;;
9698;SDS011;10089;47.876;8.346;2023-12-28T06:22:46;4.65;;;3.42;;
9698;SDS011;10089;47.876;8.346;2023-12-28T06:25:13;8.23;;;4.03;;
9698;SDS011;10089;47.876;8.346;2023-12-28T06:27:39;7.57;;;4.10;;
9698;SDS011;10089;47.876;8.346;2023-12-28T06:30:05;5.43;;;3.30;;
9698;SDS011;10089;47.876;8.346;2023-12-28T06:32:31;5.03;;;3.80;;
9698;SDS011;10089;47.876;8.346;2023-12-28T06:34:56;6.40;;;4.35;;
9698;SDS011;10089;47.876;8.346;2023-12-28T06:37:22;5.57;;;3.90;;
9698;SDS011;10089;47.876;8.346;2023-12-28T06:39:48;5.83;;;4.27;;
9698;SDS011;10089;47.876;8.346;2023-12-28T06:42:14;5.13;;;3.37;;
9698;SDS011;10089;47.876;8.346;2023-12-28T06:44:41;5.70;;;3.37;;
9698;SDS011;10089;47.876;8.346;2023-12-28T06:47:06;6.10;;;4.77;;
9698;SDS011;10089;47.876;8.346;2023-12-28T06:49:32;6.47;;;4.32;;
9698;SDS011;10089;47.876;8.346;2023-12-28T06:51:57;7.17;;;3.77;;
9698;SDS011;10089;47.876;8.346;2023-12-28T06:54:23;5.70;;;4.20;;
9698;SDS011;10089;47.876;8.346;2023-12-28T06:56:49;6.37;;;3.73;;
9698;SDS011;10089;47.876;8.346;2023-12-28T06:59:16;6.43;;;4.10;;
9698;SDS011;10089;47.876;8.346;2023-12-28T07:01:42;6.13;;;3.80;;
9698;SDS011;10089;47.876;8.346;2023-12-28T07:04:09;5.43;;;3.53;;
9698;SDS011;10089;47.876;8.346;2023-12-28T07:06:34;5.90;;;3.67;;
9698;SDS011;10089;47.876;8.346;2023-12-28T07:09:00;13.53;;;3.73;;
9698;SDS011;10089;47.876;8.346;2023-12-28T07:11:26;4.70;;;3.67;;
9698;SDS011;10089;47.876;8.346;2023-12-28T07:13:52;5.53;;;4.07;;
9698;SDS011;10089;47.876;8.346;2023-12-28T07:16:18;4.93;;;3.50;;
9698;SDS011;10089;47.876;8.346;2023-12-28T07:18:44;5.80;;;3.30;;
9698;SDS011;10089;47.876;8.346;2023-12-28T07:21:09;5.70;;;3.20;;
9698;SDS011;10089;47.876;8.346;2023-12-28T07:23:35;4.43;;;3.10;;
9698;SDS011;10089;47.876;8.346;2023-12-28T07:26:01;4.53;;;3.30;;
9698;SDS011;10089;47.876;8.346;2023-12-28T07:28:27;6.93;;;3.75;;
9698;SDS011;10089;47.876;8.346;2023-12-28T07:30:53;5.38;;;3.60;;
9698;SDS011;10089;47.876;8.346;2023-12-28T07:33:18;5.22;;;3.72;;
9698;SDS011;10089;47.876;8.346;2023-12-28T07:35:44;6.15;;;3.55;;
9698;SDS011;10089;47.876;8.346;2023-12-28T07:38:10;5.27;;;2.80;;
9698;SDS011;10089;47.876;8.346;2023-12-28T07:40:35;9.10;;;3.10;;
9698;SDS011;10089;47.876;8.346;2023-12-28T07:43:01;4.35;;;3.03;;
9698;SDS011;10089;47.876;8.346;2023-12-28T07:45:27;5.05;;;2.88;;
9698;SDS011;10089;47.876;8.346;2023-12-28T07:47:52;5.55;;;3.78;;
9698;SDS011;10089;47.876;8.346;2023-12-28T07:50:18;2.45;;;2.10;;
9698;SDS011;10089;47.876;8.346;2023-12-28T07:52:44;5.68;;;3.58;;
9698;SDS011;10089;47.876;8.346;2023-12-28T07:55:11;8.43;;;3.55;;
9698;SDS011;10089;47.876;8.346;2023-12-28T07:57:37;6.53;;;3.70;;
9698;SDS011;10089;47.876;8.346;2023-12-28T08:00:03;5.10;;;3.45;;
9698;SDS011;10089;47.876;8.346;2023-12-28T08:02:29;4.30;;;2.97;;
9698;SDS011;10089;47.876;8.346;2023-12-28T08:04:54;4.50;;;2.88;;
9698;SDS011;10089;47.876;8.346;2023-12-28T08:07:20;5.90;;;3.92;;
9698;SDS011;10089;47.876;8.346;2023-12-28T08:09:48;9.55;;;3.50;;
9698;SDS011;10089;47.876;8.346;2023-12-28T08:12:14;4.13;;;3.20;;
9698;SDS011;10089;47.876;8.346;2023-12-28T08:14:42;5.88;;;3.40;;
9698;SDS011;10089;47.876;8.346;2023-12-28T08:17:09;6.50;;;3.00;;
9698;SDS011;10089;47.876;8.346;2023-12-28T08:19:34;5.40;;;3.05;;
9698;SDS011;10089;47.876;8.346;2023-12-28T08:22:01;6.32;;;3.40;;
9698;SDS011;10089;47.876;8.346;2023-12-28T08:24:28;8.82;;;3.85;;
9698;SDS011;10089;47.876;8.346;2023-12-28T08:26:54;6.97;;;3.42;;
9698;SDS011;10089;47.876;8.346;2023-12-28T08:29:30;5.60;;;3.80;;
9698;SDS011;10089;47.876;8.346;2023-12-28T08:32:25;5.50;;;3.45;;
9698;SDS011;10089;47.876;8.346;2023-12-28T08:34:51;4.10;;;3.22;;
9698;SDS011;10089;47.876;8.346;2023-12-28T08:37:16;8.13;;;3.78;;
9698;SDS011;10089;47.876;8.346;2023-12-28T08:39:42;8.35;;;3.50;;
9698;SDS011;10089;47.876;8.346;2023-12-28T08:42:08;4.20;;;3.08;;
9698;SDS011;10089;47.876;8.346;2023-12-28T08:44:33;7.22;;;3.75;;
9698;SDS011;10089;47.876;8.346;2023-12-28T08:47:00;6.82;;;3.65;;
9698;SDS011;10089;47.876;8.346;2023-12-28T08:49:27;4.55;;;2.78;;
9698;SDS011;10089;47.876;8.346;2023-12-28T08:51:52;22.83;;;8.57;;
9698;SDS011;10089;47.876;8.346;2023-12-28T08:54:18;29.75;;;9.45;;
9698;SDS011;10089;47.876;8.346;2023-12-28T08:56:43;16.65;;;8.07;;
9698;SDS011;10089;47.876;8.346;2023-12-28T08:59:09;14.02;;;5.82;;
9698;SDS011;10089;47.876;8.346;2023-12-28T09:01:35;16.60;;;6.53;;
9698;SDS011;10089;47.876;8.346;2023-12-28T09:04:01;10.82;;;3.60;;
9698;SDS011;10089;47.876;8.346;2023-12-28T09:06:26;45.38;;;23.15;;
9698;SDS011;10089;47.876;8.346;2023-12-28T09:08:52;22.08;;;12.55;;
9698;SDS011;10089;47.876;8.346;2023-12-28T09:11:18;5.03;;;3.85;;
9698;SDS011;10089;47.876;8.346;2023-12-28T09:13:44;3.42;;;2.40;;
9698;SDS011;10089;47.876;8.346;2023-12-28T09:16:11;1.50;;;1.40;;
9698;SDS011;10089;47.876;8.346;2023-12-28T09:18:38;2.15;;;1.75;;
9698;SDS011;10089;47.876;8.346;2023-12-28T09:21:04;2.20;;;1.40;;
9698;SDS011;10089;47.876;8.346;2023-12-28T09:23:33;2.38;;;1.48;;
9698;SDS011;10089;47.876;8.346;2023-12-28T09:26:00;1.52;;;1.00;;
9698;SDS011;10089;47.876;8.346;2023-12-28T09:28:26;2.03;;;1.20;;
9698;SDS011;10089;47.876;8.346;2023-12-28T09:30:51;1.98;;;1.20;;
9698;SDS011;10089;47.876;8.346;2023-12-28T09:33:17;1.77;;;1.20;;
9698;SDS011;10089;47.876;8.346;2023-12-28T09:35:43;3.28;;;1.40;;
9698;SDS011;10089;47.876;8.346;2023-12-28T09:38:08;2.58;;;1.38;;
9698;SDS011;10089;47.876;8.346;2023-12-28T09:40:37;4.55;;;2.25;;
9698;SDS011;10089;47.876;8.346;2023-12-28T09:43:08;3.33;;;1.83;;
9698;SDS011;10089;47.876;8.346;2023-12-28T09:45:47;8.20;;;2.83;;
9698;SDS011;10089;47.876;8.346;2023-12-28T09:48:15;4.22;;;2.60;;
9698;SDS011;10089;47.876;8.346;2023-12-28T09:50:42;6.80;;;4.03;;
9698;SDS011;10089;47.876;8.346;2023-12-28T09:53:09;6.03;;;3.60;;
9698;SDS011;10089;47.876;8.346;2023-12-28T09:55:34;6.63;;;4.07;;
9698;SDS011;10089;47.876;8.346;2023-12-28T09:58:00;5.20;;;3.40;;
9698;SDS011;10089;47.876;8.346;2023-12-28T10:00:27;6.82;;;3.67;;
9698;SDS011;10089;47.876;8.346;2023-12-28T10:02:53;4.93;;;3.45;;
9698;SDS011;10089;47.876;8.346;2023-12-28T10:05:18;3.88;;;2.88;;
9698;SDS011;10089;47.876;8.346;2023-12-28T10:07:44;4.25;;;3.25;;
9698;SDS011;10089;47.876;8.346;2023-12-28T10:10:14;8.10;;;4.55;;
9698;SDS011;10089;47.876;8.346;2023-12-28T10:12:39;7.30;;;4.07;;
9698;SDS011;10089;47.876;8.346;2023-12-28T10:15:05;10.38;;;4.50;;
9698;SDS011;10089;47.876;8.346;2023-12-28T10:17:34;8.18;;;4.68;;
9698;SDS011;10089;47.876;8.346;2023-12-28T10:20:00;7.65;;;4.03;;
9698;SDS011;10089;47.876;8.346;2023-12-28T10:22:30;5.07;;;3.53;;
9698;SDS011;10089;47.876;8.346;2023-12-28T10:25:02;5.40;;;3.50;;
9698;SDS011;10089;47.876;8.346;2023-12-28T10:27:28;4.55;;;3.13;;
9698;SDS011;10089;47.876;8.346;2023-12-28T10:29:55;6.97;;;3.90;;
9698;SDS011;10089;47.876;8.346;2023-12-28T10:32:21;17.60;;;10.07;;
9698;SDS011;10089;47.876;8.346;2023-12-28T10:34:53;4.80;;;3.63;;
9698;SDS011;10089;47.876;8.346;2023-12-28T10:37:19;9.40;;;4.13;;
9698;SDS011;10089;47.876;8.346;2023-12-28T10:39:47;6.65;;;4.32;;
9698;SDS011;10089;47.876;8.346;2023-12-28T10:42:16;7.55;;;4.38;;
9698;SDS011;10089;47.876;8.346;2023-12-28T10:44:54;8.93;;;6.95;;
9698;SDS011;10089;47.876;8.346;2023-12-28T10:47:24;6.88;;;4.43;;
9698;SDS011;10089;47.876;8.346;2023-12-28T10:49:51;6.10;;;4.03;;
9698;SDS011;10089;47.876;8.346;2023-12-28T10:52:18;7.13;;;4.80;;
9698;SDS011;10089;47.876;8.346;2023-12-28T10:54:54;10.70;;;4.97;;
9698;SDS011;10089;47.876;8.346;2023-12-28T10:57:42;15.63;;;6.00;;
9698;SDS011;10089;47.876;8.346;2023-12-28T11:00:25;8.57;;;4.88;;
9698;SDS011;10089;47.876;8.346;2023-12-28T11:02:56;34.17;;;18.45;;
9698;SDS011;10089;47.876;8.346;2023-12-28T11:05:27;14.50;;;8.02;;
9698;SDS011;10089;47.876;8.346;2023-12-28T11:07:55;7.65;;;4.70;;
9698;SDS011;10089;47.876;8.346;2023-12-28T11:10:23;13.13;;;8.80;;
9698;SDS011;10089;47.876;8.346;2023-12-28T11:12:52;6.97;;;5.40;;
9698;SDS011;10089;47.876;8.346;2023-12-28T11:15:19;10.32;;;7.40;;
9698;SDS011;10089;47.876;8.346;2023-12-28T11:17:45;8.00;;;4.63;;
9698;SDS011;10089;47.876;8.346;2023-12-28T11:20:11;7.57;;;4.63;;
9698;SDS011;10089;47.876;8.346;2023-12-28T11:22:37;6.90;;;4.10;;
9698;SDS011;10089;47.876;8.346;2023-12-28T11:25:04;11.23;;;5.55;;
9698;SDS011;10089;47.876;8.346;2023-12-28T11:27:36;4.32;;;3.47;;
9698;SDS011;10089;47.876;8.346;2023-12-28T11:30:05;5.82;;;3.88;;
9698;SDS011;10089;47.876;8.346;2023-12-28T11:32:38;5.25;;;3.70;;
9698;SDS011;10089;47.876;8.346;2023-12-28T11:35:07;4.82;;;3.08;;
9698;SDS011;10089;47.876;8.346;2023-12-28T11:37:36;5.00;;;3.20;;
9698;SDS011;10089;47.876;8.346;2023-12-28T11:40:13;5.63;;;3.20;;
9698;SDS011;10089;47.876;8.346;2023-12-28T11:42:52;5.90;;;3.17;;
9698;SDS011;10089;47.876;8.346;2023-12-28T11:45:18;15.40;;;3.97;;
9698;SDS011;10089;47.876;8.346;2023-12-28T11:47:45;3.53;;;2.78;;
9698;SDS011;10089;47.876;8.346;2023-12-28T11:50:11;2.45;;;1.80;;
9698;SDS011;10089;47.876;8.346;2023-12-28T11:52:37;3.28;;;2.28;;
9698;SDS011;10089;47.876;8.346;2023-12-28T11:55:03;4.93;;;2.65;;
9698;SDS011;10089;47.876;8.346;2023-12-28T11:57:29;4.20;;;2.80;;
9698;SDS011;10089;47.876;8.346;2023-12-28T11:59:57;4.53;;;2.38;;
9698;SDS011;10089;47.876;8.346;2023-12-28T12:02:27;5.32;;;3.25;;
9698;SDS011;10089;47.876;8.346;2023-12-28T12:04:53;3.75;;;2.67;;
9698;SDS011;10089;47.876;8.346;2023-12-28T12:07:26;2.78;;;1.92;;
9698;SDS011;10089;47.876;8.346;2023-12-28T12:09:58;3.17;;;2.20;;
9698;SDS011;10089;47.876;8.346;2023-12-28T12:12:25;3.33;;;2.13;;
9698;SDS011;10089;47.876;8.346;2023-12-28T12:14:51;2.33;;;2.03;;
9698;SDS011;10089;47.876;8.346;2023-12-28T12:17:17;7.72;;;2.88;;
9698;SDS011;10089;47.876;8.346;2023-12-28T12:19:43;6.57;;;2.70;;
9698;SDS011;10089;47.876;8.346;2023-12-28T12:22:25;3.08;;;2.47;;
9698;SDS011;10089;47.876;8.346;2023-12-28T12:24:50;8.20;;;4.72;;
9698;SDS011;10089;47.876;8.346;2023-12-28T12:27:18;5.47;;;3.05;;
9698;SDS011;10089;47.876;8.346;2023-12-28T12:29:43;10.48;;;4.15;;
9698;SDS011;10089;47.876;8.346;2023-12-28T12:32:09;4.45;;;2.50;;
9698;SDS011;10089;47.876;8.346;2023-12-28T12:34:35;2.88;;;1.80;;
9698;SDS011;10089;47.876;8.346;2023-12-28T12:37:01;2.15;;;1.65;;
9698;SDS011;10089;47.876;8.346;2023-12-28T12:39:26;3.83;;;1.90;;
9698;SDS011;10089;47.876;8.346;2023-12-28T12:41:52;3.45;;;2.08;;
9698;SDS011;10089;47.876;8.346;2023-12-28T12:44:21;4.97;;;2.55;;
9698;SDS011;10089;47.876;8.346;2023-12-28T12:46:48;4.03;;;2.10;;
9698;SDS011;10089;47.876;8.346;2023-12-28T12:49:22;2.28;;;1.90;;
9698;SDS011;10089;47.876;8.346;2023-12-28T12:51:48;1.80;;;1.60;;
9698;SDS011;10089;47.876;8.346;2023-12-28T12:54:16;2.33;;;1.65;;
9698;SDS011;10089;47.876;8.346;2023-12-28T12:56:43;4.13;;;1.67;;
9698;SDS011;10089;47.876;8.346;2023-12-28T12:59:10;4.47;;;1.90;;
9698;SDS011;10089;47.876;8.346;2023-12-28T13:01:45;1.92;;;1.60;;
9698;SDS011;10089;47.876;8.346;2023-12-28T13:04:14;2.40;;;1.90;;
9698;SDS011;10089;47.876;8.346;2023-12-28T13:06:41;2.72;;;1.30;;
9698;SDS011;10089;47.876;8.346;2023-12-28T13:09:07;1.65;;;1.50;;
9698;SDS011;10089;47.876;8.346;2023-12-28T13:11:36;1.45;;;1.25;;
9698;SDS011;10089;47.876;8.346;2023-12-28T13:14:02;2.97;;;1.73;;
9698;SDS011;10089;47.876;8.346;2023-12-28T13:16:27;2.42;;;1.67;;
9698;SDS011;10089;47.876;8.346;2023-12-28T13:18:53;4.18;;;1.60;;
9698;SDS011;10089;47.876;8.346;2023-12-28T13:21:19;2.03;;;1.58;;
9698;SDS011;10089;47.876;8.346;2023-12-28T13:23:45;1.73;;;1.40;;
9698;SDS011;10089;47.876;8.346;2023-12-28T13:26:10;1.30;;;1.20;;
9698;SDS011;10089;47.876;8.346;2023-12-28T13:28:36;1.50;;;1.40;;
9698;SDS011;10089;47.876;8.346;2023-12-28T13:31:01;1.48;;;1.17;;
9698;SDS011;10089;47.876;8.346;2023-12-28T13:33:27;2.28;;;1.15;;
9698;SDS011;10089;47.876;8.346;2023-12-28T13:35:54;1.10;;;1.00;;
9698;SDS011;10089;47.876;8.346;2023-12-28T13:38:20;1.48;;;1.38;;
9698;SDS011;10089;47.876;8.346;2023-12-28T13:40:47;3.17;;;1.30;;
9698;SDS011;10089;47.876;8.346;2023-12-28T13:43:13;1.42;;;1.33;;
9698;SDS011;10089;47.876;8.346;2023-12-28T13:45:38;1.98;;;1.40;;
9698;SDS011;10089;47.876;8.346;2023-12-28T13:48:17;1.67;;;1.23;;
9698;SDS011;10089;47.876;8.346;2023-12-28T13:50:42;1.58;;;1.27;;
9698;SDS011;10089;47.876;8.346;2023-12-28T13:53:08;5.03;;;1.45;;
9698;SDS011;10089;47.876;8.346;2023-12-28T13:55:34;1.88;;;1.40;;
9698;SDS011;10089;47.876;8.346;2023-12-28T13:58:01;1.50;;;1.30;;
9698;SDS011;10089;47.876;8.346;2023-12-28T14:00:28;1.67;;;1.30;;
9698;SDS011;10089;47.876;8.346;2023-12-28T14:02:53;5.95;;;1.60;;
9698;SDS011;10089;47.876;8.346;2023-12-28T14:05:19;6.22;;;2.05;;
9698;SDS011;10089;47.876;8.346;2023-12-28T14:10:38;8.73;;;3.40;;
9698;SDS011;10089;47.876;8.346;2023-12-28T14:13:06;6.75;;;2.70;;
9698;SDS011;10089;47.876;8.346;2023-12-28T14:15:32;3.88;;;1.73;;
9698;SDS011;10089;47.876;8.346;2023-12-28T14:17:57;1.75;;;1.60;;
9698;SDS011;10089;47.876;8.346;2023-12-28T14:20:23;2.72;;;1.50;;
9698;SDS011;10089;47.876;8.346;2023-12-28T14:22:48;1.30;;;1.20;;
9698;SDS011;10089;47.876;8.346;2023-12-28T14:25:14;2.17;;;1.48;;
9698;SDS011;10089;47.876;8.346;2023-12-28T14:27:40;1.90;;;1.52;;
9698;SDS011;10089;47.876;8.346;2023-12-28T14:30:06;2.58;;;1.77;;
9698;SDS011;10089;47.876;8.346;2023-12-28T14:32:39;1.67;;;1.35;;
9698;SDS011;10089;47.876;8.346;2023-12-28T14:36:00;1.52;;;1.42;;
9698;SDS011;10089;47.876;8.346;2023-12-28T14:39:17;8.98;;;4.43;;
9698;SDS011;10089;47.876;8.346;2023-12-28T14:42:52;2.13;;;1.60;;
9698;SDS011;10089;47.876;8.346;2023-12-28T14:46:13;7.55;;;1.92;;
9698;SDS011;10089;47.876;8.346;2023-12-28T14:48:42;2.25;;;1.70;;
9698;SDS011;10089;47.876;8.346;2023-12-28T14:51:57;7.95;;;3.30;;
9698;SDS011;10089;47.876;8.346;2023-12-28T14:54:33;10.68;;;3.65;;
9698;SDS011;10089;47.876;8.346;2023-12-28T14:56:58;7.28;;;4.15;;
9698;SDS011;10089;47.876;8.346;2023-12-28T14:59:26;7.07;;;3.88;;
9698;SDS011;10089;47.876;8.346;2023-12-28T15:01:52;9.98;;;5.70;;
9698;SDS011;10089;47.876;8.346;2023-12-28T15:04:24;3.35;;;2.70;;